createdAt,value
2024-04-13T00:01:36.659Z,13.69
2024-04-13T00:04:04.410Z,13.69
2024-04-13T00:06:31.194Z,13.67
2024-04-13T00:08:57.816Z,13.67
2024-04-13T00:11:24.362Z,13.65
2024-04-13T00:13:51.155Z,13.65
2024-04-13T00:16:18.592Z,13.66
2024-04-13T00:18:46.804Z,13.65
2024-04-13T00:21:16.534Z,13.61
2024-04-13T00:23:46.897Z,13.64
2024-04-13T00:26:13.423Z,13.63
2024-04-13T00:28:40.028Z,13.59
2024-04-13T00:31:09.518Z,13.62
2024-04-13T00:33:40.105Z,13.58
2024-04-13T00:36:07.542Z,13.58
2024-04-13T00:38:34.179Z,13.60
2024-04-13T00:41:00.763Z,13.56
2024-04-13T00:43:27.354Z,13.52
2024-04-13T00:45:56.550Z,13.50
2024-04-13T00:48:25.950Z,13.50
2024-04-13T00:50:59.931Z,13.49
2024-04-13T00:53:30.093Z,13.46
2024-04-13T00:56:01.616Z,13.42
2024-04-13T00:58:29.214Z,13.39
2024-04-13T01:00:58.220Z,13.35
2024-04-13T01:03:29.192Z,13.35
2024-04-13T01:05:59.513Z,13.30
2024-04-13T01:08:29.564Z,13.27
2024-04-13T01:10:57.220Z,13.23
2024-04-13T01:13:23.902Z,13.23
2024-04-13T01:15:50.471Z,13.25
2024-04-13T01:18:17.467Z,13.20
2024-04-13T01:20:44.999Z,13.15
2024-04-13T01:23:13.249Z,13.12
2024-04-13T01:25:41.974Z,13.06
2024-04-13T01:28:09.263Z,13.03
2024-04-13T01:30:36.891Z,12.97
2024-04-13T01:33:06.584Z,12.99
2024-04-13T01:35:33.280Z,12.97
2024-04-13T01:37:59.848Z,12.95
2024-04-13T01:40:26.420Z,12.94
2024-04-13T01:42:53.031Z,12.90
2024-04-13T01:45:19.809Z,12.88
2024-04-13T01:47:46.546Z,12.85
2024-04-13T01:50:14.049Z,12.82
2024-04-13T01:52:41.098Z,12.77
2024-04-13T01:55:07.915Z,12.74
2024-04-13T01:57:34.782Z,12.71
2024-04-13T02:00:01.536Z,12.67
2024-04-13T02:02:28.273Z,12.64
2024-04-13T02:04:54.818Z,12.61
2024-04-13T02:07:21.389Z,12.62
2024-04-13T02:09:47.937Z,12.59
2024-04-13T02:12:15.512Z,12.55
2024-04-13T02:14:42.207Z,12.51
2024-04-13T02:17:08.777Z,12.47
2024-04-13T02:19:35.343Z,12.44
2024-04-13T02:22:01.911Z,12.41
2024-04-13T02:24:28.538Z,12.38
2024-04-13T02:26:55.097Z,12.38
2024-04-13T02:29:21.622Z,12.37
2024-04-13T02:31:48.172Z,12.34
2024-04-13T02:34:14.705Z,12.33
2024-04-13T02:36:41.313Z,12.30
2024-04-13T02:39:09.830Z,12.26
2024-04-13T02:41:37.072Z,12.24
2024-04-13T02:44:03.951Z,12.23
2024-04-13T02:46:30.730Z,12.19
2024-04-13T02:48:57.439Z,12.16
2024-04-13T02:51:24.237Z,12.14
2024-04-13T02:53:50.928Z,12.10
2024-04-13T02:56:17.745Z,12.06
2024-04-13T02:58:44.327Z,12.02
2024-04-13T03:01:10.980Z,11.98
2024-04-13T03:03:37.766Z,11.94
2024-04-13T03:06:09.162Z,11.88
2024-04-13T03:08:36.468Z,11.85
2024-04-13T03:11:03.583Z,11.81
2024-04-13T03:13:30.808Z,11.78
2024-04-13T03:16:02.109Z,11.75
2024-04-13T03:18:29.122Z,11.72
2024-04-13T03:20:55.821Z,11.69
2024-04-13T03:23:22.629Z,11.67
2024-04-13T03:25:49.440Z,11.63
2024-04-13T03:28:16.090Z,11.61
2024-04-13T03:30:42.740Z,11.59
2024-04-13T03:33:09.362Z,11.53
2024-04-13T03:35:39.644Z,11.50
2024-04-13T03:38:07.800Z,11.48
2024-04-13T03:40:37.701Z,11.45
2024-04-13T03:43:04.773Z,11.43
2024-04-13T03:45:31.381Z,11.39
2024-04-13T03:47:58.343Z,11.37
2024-04-13T03:50:25.187Z,11.32
2024-04-13T03:52:51.758Z,11.31
2024-04-13T03:55:18.330Z,11.29
2024-04-13T03:57:44.970Z,11.28
2024-04-13T04:00:11.994Z,11.26
2024-04-13T04:02:38.528Z,11.25
2024-04-13T04:05:05.439Z,11.24
2024-04-13T04:07:35.716Z,11.22
2024-04-13T04:10:02.358Z,11.20
2024-04-13T04:12:28.999Z,11.18
2024-04-13T04:14:55.877Z,11.14
2024-04-13T04:17:22.526Z,11.13
2024-04-13T04:19:49.151Z,11.10
2024-04-13T04:22:15.727Z,11.09
2024-04-13T04:24:42.371Z,11.07
2024-04-13T04:27:08.979Z,11.06
2024-04-13T04:29:35.673Z,11.06
2024-04-13T04:32:02.794Z,11.05
2024-04-13T04:34:31.202Z,11.04
2024-04-13T04:36:57.811Z,11.02
2024-04-13T04:39:24.484Z,11.01
2024-04-13T04:41:52.354Z,10.99
2024-04-13T04:44:18.938Z,10.96
2024-04-13T04:46:47.018Z,10.95
2024-04-13T04:49:13.911Z,10.94
2024-04-13T04:51:42.133Z,10.90
2024-04-13T04:54:11.464Z,10.90
2024-04-13T04:56:38.078Z,10.89
2024-04-13T04:59:04.658Z,10.90
2024-04-13T05:01:31.212Z,10.90
2024-04-13T05:03:58.025Z,10.90
2024-04-13T05:06:25.050Z,10.89
2024-04-13T05:08:51.688Z,10.90
2024-04-13T05:11:18.348Z,10.92
2024-04-13T05:13:44.919Z,10.94
2024-04-13T05:16:11.617Z,10.97
2024-04-13T05:18:39.043Z,10.99
2024-04-13T05:21:06.078Z,11.01
2024-04-13T05:23:32.674Z,11.05
2024-04-13T05:25:59.539Z,11.10
2024-04-13T05:28:27.860Z,11.18
2024-04-13T05:30:57.997Z,11.22
2024-04-13T05:33:25.196Z,11.26
2024-04-13T05:35:52.346Z,11.31
2024-04-13T05:38:19.190Z,11.38
2024-04-13T05:40:45.847Z,11.47
2024-04-13T05:43:13.385Z,11.58
2024-04-13T05:45:40.561Z,11.67
2024-04-13T05:48:07.789Z,11.79
2024-04-13T05:50:35.015Z,11.92
2024-04-13T05:53:01.731Z,12.13
2024-04-13T05:55:28.443Z,12.33
2024-04-13T05:57:55.102Z,12.46
2024-04-13T06:00:23.069Z,12.59
2024-04-13T06:02:50.188Z,12.82
2024-04-13T06:05:16.875Z,13.26
2024-04-13T06:07:44.546Z,13.78
2024-04-13T06:10:11.106Z,14.22
2024-04-13T06:12:37.728Z,14.66
2024-04-13T06:15:04.746Z,15.10
2024-04-13T06:17:31.268Z,15.68
2024-04-13T06:19:57.830Z,15.94
2024-04-13T06:22:24.812Z,16.13
2024-04-13T06:24:51.850Z,16.25
2024-04-13T06:27:19.329Z,16.39
2024-04-13T06:29:52.234Z,16.42
2024-04-13T06:32:19.568Z,16.69
2024-04-13T06:34:46.272Z,17.08
2024-04-13T06:37:13.349Z,17.14
2024-04-13T06:39:40.476Z,17.03
2024-04-13T06:42:07.262Z,17.07
2024-04-13T06:44:34.023Z,17.42
2024-04-13T06:47:00.615Z,17.64
2024-04-13T06:49:27.372Z,17.57
2024-04-13T06:51:54.511Z,17.41
2024-04-13T06:54:21.523Z,17.30
2024-04-13T06:56:48.080Z,17.49
2024-04-13T06:59:14.644Z,17.37
2024-04-13T07:01:41.227Z,17.28
2024-04-13T07:04:07.855Z,17.31
2024-04-13T07:06:38.091Z,17.57
2024-04-13T07:09:05.311Z,17.94
2024-04-13T07:11:32.259Z,18.80
2024-04-13T07:13:58.937Z,19.21
2024-04-13T07:16:25.608Z,19.59
2024-04-13T07:18:52.215Z,20.09
2024-04-13T07:21:18.963Z,20.41
2024-04-13T07:23:45.682Z,20.33
2024-04-13T07:26:12.273Z,20.03
2024-04-13T07:28:38.824Z,19.97
2024-04-13T07:31:06.114Z,19.97
2024-04-13T07:33:32.828Z,19.97
2024-04-13T07:35:59.546Z,19.65
2024-04-13T07:38:27.121Z,19.22
2024-04-13T07:40:54.433Z,18.85
2024-04-13T07:43:21.427Z,18.70
2024-04-13T07:45:51.128Z,18.48
2024-04-13T07:48:18.612Z,18.37
2024-04-13T07:50:45.272Z,18.21
2024-04-13T07:53:12.698Z,18.03
2024-04-13T07:55:39.677Z,18.06
2024-04-13T07:58:06.367Z,18.21
2024-04-13T08:00:33.016Z,18.13
2024-04-13T08:02:59.694Z,18.13
2024-04-13T08:05:26.284Z,18.17
2024-04-13T08:07:52.966Z,18.19
2024-04-13T08:10:20.965Z,18.23
2024-04-13T08:12:47.700Z,18.28
2024-04-13T08:15:14.367Z,18.31
2024-04-13T08:17:41.014Z,18.24
2024-04-13T08:20:10.599Z,18.16
2024-04-13T08:22:38.153Z,18.20
2024-04-13T08:25:05.947Z,18.22
2024-04-13T08:27:34.057Z,18.29
2024-04-13T08:30:00.714Z,18.51
2024-04-13T08:32:27.417Z,18.63
2024-04-13T08:34:54.003Z,18.91
2024-04-13T08:37:21.948Z,19.11
2024-04-13T08:39:48.615Z,19.38
2024-04-13T08:42:19.854Z,19.48
2024-04-13T08:44:51.381Z,19.46
2024-04-13T08:47:20.085Z,19.45
2024-04-13T08:49:49.599Z,19.39
2024-04-13T08:52:17.123Z,19.45
2024-04-13T08:54:46.940Z,19.56
2024-04-13T08:57:21.058Z,19.55
2024-04-13T08:59:50.457Z,19.66
2024-04-13T09:02:17.818Z,19.77
2024-04-13T09:04:44.592Z,19.89
2024-04-13T09:07:11.940Z,19.95
2024-04-13T09:09:40.639Z,19.99
2024-04-13T09:12:07.986Z,19.97
2024-04-13T09:14:34.700Z,19.92
2024-04-13T09:17:01.958Z,20.02
2024-04-13T09:19:28.835Z,20.12
2024-04-13T09:21:56.759Z,20.20
2024-04-13T09:24:23.553Z,20.30
2024-04-13T09:26:50.438Z,20.14
2024-04-13T09:29:29.185Z,20.15
2024-04-13T09:31:56.004Z,20.11
2024-04-13T09:34:24.762Z,20.23
2024-04-13T09:36:51.631Z,20.42
2024-04-13T09:39:23.186Z,20.51
2024-04-13T09:41:50.295Z,20.63
2024-04-13T09:44:26.653Z,20.86
2024-04-13T09:46:53.611Z,20.95
2024-04-13T09:49:20.404Z,21.09
2024-04-13T09:51:50.374Z,21.14
2024-04-13T09:54:17.233Z,21.22
2024-04-13T09:56:47.860Z,21.24
2024-04-13T09:59:15.050Z,21.28
2024-04-13T10:01:41.886Z,21.35
2024-04-13T10:04:08.656Z,21.41
2024-04-13T10:06:38.219Z,21.51
2024-04-13T10:09:07.268Z,21.66
2024-04-13T10:11:39.735Z,21.81
2024-04-13T10:14:07.554Z,21.76
2024-04-13T10:16:34.399Z,21.79
2024-04-13T10:19:01.657Z,21.80
2024-04-13T10:21:28.272Z,21.78
2024-04-13T10:23:56.259Z,22.00
2024-04-13T10:26:27.237Z,21.99
2024-04-13T10:29:01.401Z,21.84
2024-04-13T10:31:30.000Z,21.79
2024-04-13T10:33:57.859Z,21.87
2024-04-13T10:36:33.417Z,21.90
2024-04-13T10:39:03.329Z,21.99
2024-04-13T10:41:39.896Z,22.12
2024-04-13T10:44:08.979Z,22.18
2024-04-13T10:46:35.576Z,22.27
2024-04-13T10:49:03.224Z,22.54
2024-04-13T10:51:30.082Z,22.66
2024-04-13T10:53:56.842Z,22.66
2024-04-13T10:56:23.466Z,22.73
2024-04-13T10:58:51.100Z,22.91
2024-04-13T11:01:19.983Z,22.97
2024-04-13T11:03:47.097Z,23.00
2024-04-13T11:06:13.967Z,22.75
2024-04-13T11:08:40.985Z,22.78
2024-04-13T11:11:11.791Z,22.95
2024-04-13T11:13:38.771Z,23.13
2024-04-13T11:16:07.182Z,23.21
2024-04-13T11:18:34.209Z,23.18
2024-04-13T11:21:06.969Z,23.12
2024-04-13T11:23:35.574Z,23.16
2024-04-13T11:26:03.562Z,23.22
2024-04-13T11:28:30.851Z,23.38
2024-04-13T11:30:57.892Z,23.45
2024-04-13T11:33:25.348Z,23.57
2024-04-13T11:35:59.297Z,23.58
2024-04-13T11:38:36.225Z,23.58
2024-04-13T11:41:02.881Z,23.53
2024-04-13T11:43:29.507Z,23.55
2024-04-13T11:45:57.106Z,23.64
2024-04-13T11:48:24.102Z,23.63
2024-04-13T11:50:50.790Z,23.76
2024-04-13T11:53:17.540Z,23.62
2024-04-13T11:55:44.080Z,23.64
2024-04-13T11:58:21.104Z,23.59
2024-04-13T12:00:47.916Z,23.60
2024-04-13T12:03:14.673Z,23.68
2024-04-13T12:05:41.268Z,23.86
2024-04-13T12:08:07.936Z,23.96
2024-04-13T12:10:34.485Z,24.01
2024-04-13T12:13:01.143Z,23.84
2024-04-13T12:15:27.720Z,23.99
2024-04-13T12:17:54.327Z,24.08
2024-04-13T12:20:21.590Z,24.23
2024-04-13T12:22:48.155Z,24.21
2024-04-13T12:25:14.879Z,24.06
2024-04-13T12:27:41.469Z,24.24
2024-04-13T12:30:08.949Z,24.31
2024-04-13T12:32:35.654Z,24.39
2024-04-13T12:35:08.678Z,24.39
2024-04-13T12:37:36.365Z,24.44
2024-04-13T12:40:03.396Z,24.44
2024-04-13T12:42:30.594Z,24.24
2024-04-13T12:44:58.113Z,24.33
2024-04-13T12:47:24.749Z,24.48
2024-04-13T12:49:51.339Z,24.46
2024-04-13T12:52:17.988Z,24.44
2024-04-13T12:54:44.636Z,24.71
2024-04-13T12:57:11.627Z,24.84
2024-04-13T12:59:38.157Z,24.93
2024-04-13T13:02:04.835Z,24.94
2024-04-13T13:04:31.477Z,24.94
2024-04-13T13:06:58.079Z,24.88
2024-04-13T13:09:24.877Z,24.82
2024-04-13T13:11:51.456Z,24.76
2024-04-13T13:14:18.015Z,24.85
2024-04-13T13:16:44.618Z,25.00
2024-04-13T13:19:11.176Z,24.92
2024-04-13T13:21:37.814Z,25.01
2024-04-13T13:24:05.547Z,25.01
2024-04-13T13:26:32.102Z,25.06
2024-04-13T13:29:03.601Z,25.12
2024-04-13T13:31:30.611Z,25.02
2024-04-13T13:33:57.688Z,25.13
2024-04-13T13:36:24.277Z,24.94
2024-04-13T13:38:51.207Z,24.74
2024-04-13T13:41:18.172Z,24.69
2024-04-13T13:43:44.721Z,24.76
2024-04-13T13:46:11.270Z,24.80
2024-04-13T13:48:37.955Z,24.76
2024-04-13T13:51:04.916Z,24.76
2024-04-13T13:53:31.499Z,24.78
2024-04-13T13:55:58.011Z,24.86
2024-04-13T13:58:24.572Z,24.85
2024-04-13T14:00:51.142Z,24.82
2024-04-13T14:03:17.767Z,24.86
2024-04-13T14:05:44.357Z,24.84
2024-04-13T14:08:10.895Z,24.78
2024-04-13T14:10:40.211Z,24.67
2024-04-13T14:13:07.690Z,24.71
2024-04-13T14:15:38.328Z,24.81
2024-04-13T14:18:06.122Z,24.86
2024-04-13T14:20:32.702Z,24.74
2024-04-13T14:22:59.225Z,24.72
2024-04-13T14:25:25.736Z,24.95
2024-04-13T14:27:52.420Z,24.76
2024-04-13T14:30:19.097Z,24.77
2024-04-13T14:32:45.723Z,24.89
2024-04-13T14:35:12.330Z,24.95
2024-04-13T14:37:38.860Z,25.04
2024-04-13T14:40:07.548Z,25.16
2024-04-13T14:42:34.504Z,25.24
2024-04-13T14:45:01.257Z,25.14
2024-04-13T14:47:27.935Z,25.13
2024-04-13T14:49:54.475Z,25.01
2024-04-13T14:52:20.989Z,24.97
2024-04-13T14:54:47.606Z,25.02
2024-04-13T14:57:14.181Z,25.02
2024-04-13T14:59:40.821Z,24.88
2024-04-13T15:02:07.405Z,24.87
2024-04-13T15:04:34.730Z,24.87
2024-04-13T15:07:01.446Z,24.76
2024-04-13T15:09:27.982Z,24.69
2024-04-13T15:11:54.839Z,24.76
2024-04-13T15:14:21.397Z,24.79
2024-04-13T15:16:48.003Z,24.83
2024-04-13T15:19:14.794Z,24.79
2024-04-13T15:21:41.489Z,24.69
2024-04-13T15:24:08.448Z,24.61
2024-04-13T15:26:35.092Z,24.66
2024-04-13T15:29:01.936Z,24.61
2024-04-13T15:31:30.208Z,24.57
2024-04-13T15:33:56.877Z,24.54
2024-04-13T15:36:23.483Z,24.41
2024-04-13T15:38:50.071Z,24.40
2024-04-13T15:41:16.680Z,24.32
2024-04-13T15:43:43.260Z,24.08
2024-04-13T15:46:09.856Z,24.04
2024-04-13T15:48:36.509Z,23.93
2024-04-13T15:51:04.117Z,23.96
2024-04-13T15:53:31.671Z,23.96
2024-04-13T15:55:59.736Z,23.89
2024-04-13T15:58:26.494Z,23.83
2024-04-13T16:00:53.153Z,23.80
2024-04-13T16:03:21.809Z,23.66
2024-04-13T16:05:54.339Z,23.59
2024-04-13T16:08:21.693Z,23.52
2024-04-13T16:10:48.373Z,23.45
2024-04-13T16:13:14.992Z,23.38
2024-04-13T16:15:41.543Z,23.30
2024-04-13T16:18:08.139Z,23.26
2024-04-13T16:20:34.652Z,23.26
2024-04-13T16:23:01.171Z,23.32
2024-04-13T16:25:27.746Z,23.34
2024-04-13T16:27:56.195Z,23.32
2024-04-13T16:30:22.762Z,23.29
2024-04-13T16:32:49.329Z,23.38
2024-04-13T16:35:16.084Z,23.42
2024-04-13T16:37:42.642Z,23.30
2024-04-13T16:40:09.468Z,23.17
2024-04-13T16:42:36.027Z,23.09
2024-04-13T16:45:02.602Z,22.98
2024-04-13T16:47:29.399Z,22.83
2024-04-13T16:49:56.024Z,22.79
2024-04-13T16:52:22.593Z,22.69
2024-04-13T16:54:49.261Z,22.64
2024-04-13T16:57:15.906Z,22.53
2024-04-13T16:59:42.451Z,22.37
2024-04-13T17:02:09.026Z,22.27
2024-04-13T17:04:35.781Z,22.27
2024-04-13T17:07:02.334Z,22.27
2024-04-13T17:09:28.948Z,22.26
2024-04-13T17:11:55.515Z,22.16
2024-04-13T17:14:22.170Z,22.12
2024-04-13T17:16:48.672Z,22.06
2024-04-13T17:19:15.354Z,21.95
2024-04-13T17:21:41.992Z,21.87
2024-04-13T17:24:08.671Z,21.80
2024-04-13T17:26:35.215Z,21.75
2024-04-13T17:29:01.725Z,21.68
2024-04-13T17:31:28.286Z,21.56
2024-04-13T17:33:54.957Z,21.49
2024-04-13T17:36:22.497Z,21.40
2024-04-13T17:38:49.180Z,21.30
2024-04-13T17:41:16.256Z,21.27
2024-04-13T17:43:42.817Z,21.26
2024-04-13T17:46:09.422Z,21.26
2024-04-13T17:48:36.203Z,21.31
2024-04-13T17:51:02.798Z,21.33
2024-04-13T17:53:29.359Z,21.29
2024-04-13T17:55:55.935Z,21.24
2024-04-13T17:58:23.015Z,21.21
2024-04-13T18:00:49.640Z,21.13
2024-04-13T18:03:16.243Z,21.09
2024-04-13T18:05:42.918Z,21.10
2024-04-13T18:08:11.145Z,21.16
2024-04-13T18:10:40.310Z,21.10
2024-04-13T18:13:06.910Z,21.00
2024-04-13T18:15:33.518Z,21.03
2024-04-13T18:18:00.263Z,20.97
2024-04-13T18:20:26.842Z,20.84
2024-04-13T18:22:53.418Z,20.75
2024-04-13T18:25:20.022Z,20.71
2024-04-13T18:27:47.459Z,20.64
2024-04-13T18:30:15.110Z,20.68
2024-04-13T18:32:41.904Z,20.77
2024-04-13T18:35:08.645Z,20.79
2024-04-13T18:37:35.347Z,20.71
2024-04-13T18:40:01.916Z,20.63
2024-04-13T18:42:28.618Z,20.54
2024-04-13T18:44:55.209Z,20.51
2024-04-13T18:47:22.073Z,20.41
2024-04-13T18:49:54.325Z,20.31
2024-04-13T18:52:21.904Z,20.22
2024-04-13T18:54:49.617Z,20.08
2024-04-13T18:57:16.362Z,20.02
2024-04-13T18:59:43.893Z,19.89
2024-04-13T19:02:10.855Z,19.86
2024-04-13T19:04:37.592Z,19.75
2024-04-13T19:07:04.648Z,19.62
2024-04-13T19:09:31.289Z,19.54
2024-04-13T19:11:57.829Z,19.43
2024-04-13T19:14:24.420Z,19.47
2024-04-13T19:16:52.374Z,19.45
2024-04-13T19:19:19.683Z,19.38
2024-04-13T19:21:46.855Z,19.44
2024-04-13T19:24:14.153Z,19.44
2024-04-13T19:26:41.817Z,19.38
2024-04-13T19:29:09.026Z,19.35
2024-04-13T19:31:35.813Z,19.29
2024-04-13T19:34:02.601Z,19.26
2024-04-13T19:36:29.222Z,19.25
2024-04-13T19:38:55.780Z,19.16
2024-04-13T19:41:22.289Z,19.02
2024-04-13T19:43:48.819Z,18.94
2024-04-13T19:46:15.384Z,18.98
2024-04-13T19:48:42.071Z,18.98
2024-04-13T19:51:08.865Z,19.06
2024-04-13T19:53:36.551Z,19.25
2024-04-13T19:56:03.192Z,19.35
2024-04-13T19:58:29.823Z,19.28
2024-04-13T20:00:56.469Z,19.15
2024-04-13T20:03:25.705Z,19.09
2024-04-13T20:05:58.052Z,19.00
2024-04-13T20:08:24.616Z,18.89
2024-04-13T20:11:04.618Z,18.69
2024-04-13T20:13:31.430Z,18.55
2024-04-13T20:16:16.621Z,18.48
2024-04-13T20:18:43.417Z,18.36
2024-04-13T20:21:13.410Z,18.28
2024-04-13T20:23:40.233Z,18.26
2024-04-13T20:26:06.972Z,18.21
2024-04-13T20:28:33.703Z,18.18
2024-04-13T20:31:00.646Z,18.16
2024-04-13T20:33:27.868Z,18.11
2024-04-13T20:35:54.500Z,18.06
2024-04-13T20:38:21.298Z,17.95
2024-04-13T20:40:47.871Z,17.87
2024-04-13T20:43:14.615Z,17.80
2024-04-13T20:45:41.593Z,17.76
2024-04-13T20:48:08.692Z,17.65
2024-04-13T20:50:37.718Z,17.59
2024-04-13T20:53:05.677Z,17.49
2024-04-13T20:55:32.277Z,17.40
2024-04-13T20:57:58.916Z,17.31
2024-04-13T21:00:26.904Z,17.22
2024-04-13T21:02:53.624Z,17.13
2024-04-13T21:05:20.139Z,17.04
2024-04-13T21:07:47.341Z,17.00
2024-04-13T21:10:14.381Z,16.90
2024-04-13T21:12:41.041Z,16.81
2024-04-13T21:15:08.156Z,16.73
2024-04-13T21:17:35.357Z,16.69
2024-04-13T21:20:02.185Z,16.71
2024-04-13T21:22:29.013Z,16.76
2024-04-13T21:24:58.226Z,16.81
2024-04-13T21:27:26.135Z,16.76
2024-04-13T21:29:52.836Z,16.74
2024-04-13T21:32:20.431Z,16.71
2024-04-13T21:34:47.263Z,16.63
2024-04-13T21:37:13.781Z,16.57
2024-04-13T21:39:40.362Z,16.51
2024-04-13T21:42:07.048Z,16.44
2024-04-13T21:44:33.646Z,16.38
2024-04-13T21:47:00.321Z,16.30
2024-04-13T21:49:26.893Z,16.25
2024-04-13T21:51:53.583Z,16.20
2024-04-13T21:54:20.145Z,16.12
2024-04-13T21:56:46.717Z,16.07
2024-04-13T21:59:13.588Z,16.01
2024-04-13T22:01:40.164Z,15.88
2024-04-13T22:04:07.394Z,15.78
2024-04-13T22:06:34.501Z,15.71
2024-04-13T22:09:01.503Z,15.65
2024-04-13T22:11:28.342Z,15.60
2024-04-13T22:13:55.051Z,15.48
2024-04-13T22:16:22.477Z,15.45
2024-04-13T22:18:49.378Z,15.45
2024-04-13T22:21:15.984Z,15.39
2024-04-13T22:23:42.787Z,15.35
2024-04-13T22:26:09.430Z,15.27
2024-04-13T22:28:36.991Z,15.24
2024-04-13T22:31:03.827Z,15.21
2024-04-13T22:33:30.531Z,15.22
2024-04-13T22:35:57.116Z,15.24
2024-04-13T22:38:23.652Z,15.22
2024-04-13T22:40:50.759Z,15.18
2024-04-13T22:43:18.675Z,15.13
2024-04-13T22:45:45.340Z,15.10
2024-04-13T22:48:11.998Z,15.07
2024-04-13T22:50:38.597Z,15.07
2024-04-13T22:53:05.164Z,15.05
2024-04-13T22:55:31.673Z,15.02
2024-04-13T22:57:59.129Z,14.97
2024-04-13T23:00:25.945Z,14.95
2024-04-13T23:02:52.566Z,14.91
2024-04-13T23:05:19.103Z,14.89
2024-04-13T23:07:45.646Z,14.85
2024-04-13T23:10:12.199Z,14.79
2024-04-13T23:12:39.170Z,14.73
2024-04-13T23:15:06.109Z,14.68
2024-04-13T23:17:33.633Z,14.60
2024-04-13T23:20:00.239Z,14.59
2024-04-13T23:22:26.799Z,14.50
2024-04-13T23:24:53.619Z,14.45
2024-04-13T23:27:20.461Z,14.39
2024-04-13T23:29:47.032Z,14.32
2024-04-13T23:32:13.570Z,14.27
2024-04-13T23:34:40.122Z,14.21
2024-04-13T23:37:06.644Z,14.18
2024-04-13T23:39:33.171Z,14.17
2024-04-13T23:42:00.080Z,14.17
2024-04-13T23:44:31.250Z,14.12
2024-04-13T23:46:58.492Z,14.12
2024-04-13T23:49:25.186Z,14.12
2024-04-13T23:51:51.774Z,14.10
2024-04-13T23:54:18.306Z,14.09
2024-04-13T23:56:46.305Z,14.05
2024-04-13T23:59:13.688Z,14.01
